createdAt,value
2023-01-09T00:00:31.104Z,59.90
2023-01-09T00:03:00.448Z,59.90
2023-01-09T00:05:29.732Z,59.30
2023-01-09T00:07:59.057Z,60.30
2023-01-09T00:10:28.359Z,59.70
2023-01-09T00:12:57.561Z,59.70
2023-01-09T00:15:27.086Z,59.70
2023-01-09T00:17:57.701Z,59.70
2023-01-09T00:20:26.936Z,59.60
2023-01-09T00:22:56.143Z,59.60
2023-01-09T00:25:25.473Z,59.60
2023-01-09T00:27:54.731Z,59.70
2023-01-09T00:30:24.127Z,59.70
2023-01-09T00:32:53.424Z,59.60
2023-01-09T00:35:26.253Z,59.70
2023-01-09T00:37:55.502Z,59.70
2023-01-09T00:40:24.706Z,59.70
2023-01-09T00:42:58.045Z,59.70
2023-01-09T00:45:30.114Z,59.70
2023-01-09T00:48:03.886Z,59.70
2023-01-09T00:50:35.659Z,59.70
2023-01-09T00:53:10.436Z,59.70
2023-01-09T00:55:41.107Z,59.70
2023-01-09T00:58:10.905Z,59.60
2023-01-09T01:00:40.314Z,59.60
2023-01-09T01:03:09.638Z,59.60
2023-01-09T01:05:57.784Z,59.60
2023-01-09T01:08:26.983Z,59.50
2023-01-09T01:10:56.232Z,59.50
2023-01-09T01:13:25.391Z,59.60
2023-01-09T01:15:54.798Z,59.60
2023-01-09T01:18:23.987Z,59.50
2023-01-09T01:20:54.669Z,59.50
2023-01-09T01:23:24.024Z,59.50
2023-01-09T01:25:53.535Z,59.50
2023-01-09T01:28:22.751Z,59.60
2023-01-09T01:30:52.070Z,59.50
2023-01-09T01:33:21.316Z,59.50
2023-01-09T01:35:50.633Z,59.50
2023-01-09T01:38:21.412Z,59.50
2023-01-09T01:40:54.799Z,59.50
2023-01-09T01:43:24.372Z,59.50
2023-01-09T01:45:53.725Z,59.50
2023-01-09T01:48:27.261Z,59.40
2023-01-09T01:51:00.149Z,59.40
2023-01-09T01:53:36.005Z,59.50
2023-01-09T01:56:12.005Z,59.40
2023-01-09T01:58:47.454Z,59.40
2023-01-09T02:01:17.483Z,59.50
2023-01-09T02:03:47.298Z,59.40
2023-01-09T02:06:17.072Z,59.40
2023-01-09T02:08:48.412Z,59.40
2023-01-09T02:11:20.043Z,59.40
2023-01-09T02:13:50.034Z,59.40
2023-01-09T02:16:30.936Z,59.40
2023-01-09T02:19:12.291Z,59.40
2023-01-09T02:21:52.141Z,59.40
2023-01-09T02:24:46.413Z,59.30
2023-01-09T02:27:31.361Z,59.30
2023-01-09T02:30:26.014Z,59.30
2023-01-09T02:33:04.522Z,59.30
2023-01-09T02:35:55.134Z,59.30
2023-01-09T02:38:34.001Z,59.30
2023-01-09T02:41:09.937Z,59.30
2023-01-09T02:43:41.453Z,59.30
2023-01-09T02:46:21.172Z,59.30
2023-01-09T02:48:54.082Z,59.30
2023-01-09T02:51:33.167Z,59.20
2023-01-09T02:54:17.919Z,59.20
2023-01-09T02:57:03.365Z,59.20
2023-01-09T02:59:38.021Z,59.20
2023-01-09T03:02:26.515Z,59.20
2023-01-09T03:05:04.396Z,59.20
2023-01-09T03:07:39.400Z,59.20
2023-01-09T03:10:15.519Z,59.10
2023-01-09T03:12:46.297Z,59.20
2023-01-09T03:15:17.460Z,59.20
2023-01-09T03:17:50.869Z,59.10
2023-01-09T03:20:24.875Z,59.70
2023-01-09T03:22:58.678Z,59.10
2023-01-09T03:25:29.386Z,59.10
2023-01-09T03:28:00.281Z,59.10
2023-01-09T03:30:30.967Z,59.10
2023-01-09T03:33:01.667Z,59.10
2023-01-09T03:35:31.027Z,59.00
2023-01-09T03:38:00.360Z,59.10
2023-01-09T03:40:29.655Z,59.00
2023-01-09T03:42:58.936Z,59.10
2023-01-09T03:45:28.236Z,59.00
2023-01-09T03:47:58.717Z,59.10
2023-01-09T03:50:29.391Z,59.10
2023-01-09T03:52:58.717Z,59.00
2023-01-09T03:55:28.173Z,59.00
2023-01-09T03:57:57.373Z,59.00
2023-01-09T04:00:26.795Z,59.00
2023-01-09T04:02:55.973Z,59.00
2023-01-09T04:05:25.251Z,59.10
2023-01-09T04:07:56.017Z,59.00
2023-01-09T04:10:25.278Z,59.00
2023-01-09T04:12:54.531Z,59.00
2023-01-09T04:15:23.956Z,59.00
2023-01-09T04:17:53.259Z,59.00
2023-01-09T04:20:22.506Z,59.00
2023-01-09T04:22:51.940Z,58.90
2023-01-09T04:25:23.195Z,58.90
2023-01-09T04:27:52.425Z,59.00
2023-01-09T04:30:21.795Z,58.90
2023-01-09T04:32:52.141Z,58.90
2023-01-09T04:35:21.656Z,58.90
2023-01-09T04:37:50.819Z,58.90
2023-01-09T04:40:21.702Z,58.90
2023-01-09T04:42:50.933Z,58.90
2023-01-09T04:45:20.317Z,58.90
2023-01-09T04:47:49.500Z,58.90
2023-01-09T04:50:18.842Z,58.80
2023-01-09T04:52:48.018Z,58.80
2023-01-09T04:55:17.388Z,58.80
2023-01-09T04:57:48.116Z,58.90
2023-01-09T05:00:18.032Z,58.90
2023-01-09T05:02:47.228Z,58.90
2023-01-09T05:05:16.615Z,58.90
2023-01-09T05:07:45.781Z,58.90
2023-01-09T05:10:14.986Z,58.90
2023-01-09T05:12:44.265Z,58.90
2023-01-09T05:15:15.190Z,58.90
2023-01-09T05:17:44.364Z,58.90
2023-01-09T05:20:13.872Z,58.90
2023-01-09T05:22:43.093Z,58.90
2023-01-09T05:25:12.332Z,58.80
2023-01-09T05:27:44.161Z,58.80
2023-01-09T05:30:18.101Z,58.80
2023-01-09T05:32:47.755Z,59.50
2023-01-09T05:35:17.165Z,59.30
2023-01-09T05:37:46.405Z,59.30
2023-01-09T05:40:16.050Z,59.40
2023-01-09T05:42:45.761Z,59.40
2023-01-09T05:45:16.622Z,59.80
2023-01-09T05:47:46.599Z,60.00
2023-01-09T05:50:16.923Z,60.00
2023-01-09T05:52:46.124Z,60.20
2023-01-09T05:55:15.529Z,60.40
2023-01-09T05:57:44.813Z,60.30
2023-01-09T06:00:16.748Z,60.40
2023-01-09T06:02:46.055Z,60.50
2023-01-09T06:05:15.416Z,60.60
2023-01-09T06:07:44.697Z,60.70
2023-01-09T06:10:16.485Z,60.40
2023-01-09T06:12:49.327Z,59.80
2023-01-09T06:15:20.805Z,60.00
2023-01-09T06:17:50.120Z,60.00
2023-01-09T06:20:19.613Z,59.90
2023-01-09T06:22:52.214Z,59.80
2023-01-09T06:25:21.467Z,59.80
2023-01-09T06:27:52.407Z,59.80
2023-01-09T06:30:23.139Z,59.60
2023-01-09T06:32:52.604Z,59.60
2023-01-09T06:35:22.661Z,59.60
2023-01-09T06:37:52.292Z,59.60
2023-01-09T06:40:21.465Z,59.60
2023-01-09T06:42:51.206Z,59.60
2023-01-09T06:45:20.487Z,59.60
2023-01-09T06:47:51.297Z,59.50
2023-01-09T06:50:20.645Z,59.50
2023-01-09T06:52:49.880Z,59.50
2023-01-09T06:55:19.213Z,59.50
2023-01-09T06:57:48.455Z,59.40
2023-01-09T07:00:18.577Z,59.40
2023-01-09T07:02:47.769Z,59.40
2023-01-09T07:05:18.745Z,59.40
2023-01-09T07:07:48.173Z,59.30
2023-01-09T07:10:17.514Z,59.30
2023-01-09T07:12:46.725Z,59.30
2023-01-09T07:15:16.004Z,59.30
2023-01-09T07:17:45.179Z,59.30
2023-01-09T07:20:14.480Z,59.40
2023-01-09T07:22:45.135Z,59.30
2023-01-09T07:25:14.649Z,59.30
2023-01-09T07:27:43.882Z,59.30
2023-01-09T07:30:14.417Z,59.30
2023-01-09T07:32:43.871Z,59.30
2023-01-09T07:35:13.150Z,59.30
2023-01-09T07:37:42.384Z,59.30
2023-01-09T07:40:14.029Z,59.20
2023-01-09T07:42:43.335Z,59.20
2023-01-09T07:45:13.161Z,59.20
2023-01-09T07:47:43.842Z,59.20
2023-01-09T07:50:13.278Z,59.20
2023-01-09T07:52:42.554Z,59.20
2023-01-09T07:55:13.972Z,59.20
2023-01-09T07:57:44.288Z,59.10
2023-01-09T08:00:14.482Z,59.10
2023-01-09T08:02:43.907Z,59.10
2023-01-09T08:05:15.194Z,59.10
2023-01-09T08:07:44.872Z,59.10
2023-01-09T08:10:15.486Z,59.00
2023-01-09T08:12:45.145Z,59.00
2023-01-09T08:15:15.320Z,59.00
2023-01-09T08:17:45.589Z,59.00
2023-01-09T08:20:16.870Z,59.00
2023-01-09T08:22:49.852Z,58.90
2023-01-09T08:25:20.726Z,58.90
2023-01-09T08:27:50.400Z,58.90
2023-01-09T08:30:20.445Z,59.00
2023-01-09T08:32:54.086Z,59.00
2023-01-09T08:35:23.974Z,58.90
2023-01-09T08:37:53.251Z,58.90
2023-01-09T08:40:23.930Z,58.90
2023-01-09T08:43:10.299Z,59.00
2023-01-09T08:45:57.256Z,58.90
2023-01-09T08:48:26.646Z,58.90
2023-01-09T08:50:55.872Z,58.90
2023-01-09T08:53:25.104Z,58.90
2023-01-09T08:55:55.806Z,58.90
2023-01-09T08:58:25.072Z,58.90
2023-01-09T09:00:54.245Z,58.90
2023-01-09T09:03:23.417Z,58.90
2023-01-09T09:05:52.804Z,58.90
2023-01-09T09:08:22.004Z,58.90
2023-01-09T09:10:51.270Z,58.90
2023-01-09T09:13:21.903Z,58.90
2023-01-09T09:15:51.260Z,58.90
2023-01-09T09:18:20.506Z,58.90
2023-01-09T09:20:49.701Z,58.90
2023-01-09T09:23:18.889Z,58.90
2023-01-09T09:25:48.412Z,58.90
2023-01-09T09:28:17.628Z,58.90
2023-01-09T09:30:48.236Z,58.90
2023-01-09T09:33:17.381Z,58.90
2023-01-09T09:35:46.677Z,58.90
2023-01-09T09:38:20.390Z,58.90
2023-01-09T09:41:07.527Z,58.90
2023-01-09T09:44:08.413Z,58.90
2023-01-09T09:46:45.944Z,58.90
2023-01-09T09:49:21.233Z,59.00
2023-01-09T09:52:02.546Z,58.90
2023-01-09T09:54:35.837Z,58.90
2023-01-09T09:57:12.066Z,58.90
2023-01-09T09:59:43.415Z,58.80
2023-01-09T10:02:27.396Z,58.90
2023-01-09T10:05:03.417Z,58.80
2023-01-09T10:07:41.932Z,58.80
2023-01-09T10:10:19.753Z,58.90
2023-01-09T10:12:55.255Z,58.90
2023-01-09T10:15:37.130Z,58.80
2023-01-09T10:18:19.853Z,58.80
2023-01-09T10:20:57.821Z,58.80
2023-01-09T10:24:00.402Z,58.80
2023-01-09T10:26:34.196Z,58.80
2023-01-09T10:29:31.166Z,58.80
2023-01-09T10:32:12.876Z,58.80
2023-01-09T10:34:55.556Z,58.80
2023-01-09T10:37:26.790Z,58.80
2023-01-09T10:40:00.842Z,58.80
2023-01-09T10:42:36.915Z,58.90
2023-01-09T10:45:13.898Z,58.80
2023-01-09T10:47:44.201Z,58.80
2023-01-09T10:50:21.740Z,58.80
2023-01-09T10:52:53.572Z,58.80
2023-01-09T10:55:32.328Z,58.80
2023-01-09T10:58:04.539Z,58.80
2023-01-09T11:00:33.820Z,58.80
2023-01-09T11:03:03.140Z,58.80
2023-01-09T11:05:34.244Z,58.80
2023-01-09T11:08:12.807Z,58.80
2023-01-09T11:10:49.875Z,58.80
2023-01-09T11:13:23.510Z,58.80
2023-01-09T11:16:06.947Z,58.80
2023-01-09T11:18:39.387Z,58.80
2023-01-09T11:21:33.462Z,58.80
2023-01-09T11:24:31.059Z,58.80
2023-01-09T11:27:23.941Z,58.90
2023-01-09T11:30:27.096Z,58.80
2023-01-09T11:32:57.991Z,58.90
2023-01-09T11:35:33.741Z,58.90
2023-01-09T11:38:15.831Z,58.90
2023-01-09T11:40:50.967Z,58.80
2023-01-09T11:43:30.970Z,58.90
2023-01-09T11:46:03.260Z,58.90
2023-01-09T11:48:36.208Z,58.90
2023-01-09T11:51:08.269Z,58.90
2023-01-09T11:54:00.204Z,58.80
2023-01-09T11:56:29.638Z,58.80
2023-01-09T11:59:00.233Z,58.80
2023-01-09T12:01:53.880Z,58.80
2023-01-09T12:04:30.082Z,58.80
2023-01-09T12:07:24.798Z,58.80
2023-01-09T12:10:03.777Z,58.80
2023-01-09T12:12:42.626Z,58.90
2023-01-09T12:15:26.005Z,59.40
2023-01-09T12:18:12.153Z,58.90
2023-01-09T12:21:17.837Z,59.50
2023-01-09T12:24:01.834Z,58.90
2023-01-09T12:26:34.299Z,58.90
2023-01-09T12:29:22.841Z,58.90
2023-01-09T12:32:18.667Z,58.90
2023-01-09T12:35:00.525Z,58.90
2023-01-09T12:37:53.295Z,58.90
2023-01-09T12:40:43.711Z,58.90
2023-01-09T12:43:22.028Z,58.90
2023-01-09T12:46:04.555Z,58.90
2023-01-09T12:48:48.878Z,58.80
2023-01-09T12:51:32.235Z,58.80
2023-01-09T12:54:06.999Z,58.90
2023-01-09T12:56:42.115Z,58.90
2023-01-09T12:59:30.356Z,58.80
2023-01-09T13:02:09.210Z,58.80
2023-01-09T13:04:44.125Z,58.80
2023-01-09T13:07:18.897Z,58.80
2023-01-09T13:09:53.542Z,58.80
2023-01-09T13:12:25.728Z,58.80
2023-01-09T13:15:00.977Z,58.80
2023-01-09T13:17:36.541Z,58.80
2023-01-09T13:20:19.403Z,58.80
2023-01-09T13:22:51.135Z,58.80
2023-01-09T13:25:38.546Z,58.90
2023-01-09T13:28:13.764Z,58.80
2023-01-09T13:31:12.985Z,58.90
2023-01-09T13:33:46.729Z,58.90
2023-01-09T13:36:25.767Z,58.80
2023-01-09T13:38:56.832Z,58.80
2023-01-09T13:41:45.959Z,58.80
2023-01-09T13:44:25.310Z,58.90
2023-01-09T13:46:58.540Z,58.80
2023-01-09T13:49:50.597Z,58.80
2023-01-09T13:52:37.414Z,58.90
2023-01-09T13:55:26.462Z,58.90
2023-01-09T13:58:22.903Z,58.90
2023-01-09T14:01:00.903Z,58.90
2023-01-09T14:03:37.446Z,58.80
2023-01-09T14:06:25.452Z,58.80
2023-01-09T14:09:14.597Z,58.90
2023-01-09T14:11:44.730Z,58.80
2023-01-09T14:14:27.349Z,58.70
2023-01-09T14:16:57.012Z,58.60
2023-01-09T14:19:36.652Z,58.50
2023-01-09T14:22:07.015Z,58.60
2023-01-09T14:24:44.266Z,58.60
2023-01-09T14:27:43.129Z,58.50
2023-01-09T14:30:30.594Z,58.60
2023-01-09T14:33:01.472Z,58.50
2023-01-09T14:35:46.578Z,58.50
2023-01-09T14:38:30.798Z,58.50
2023-01-09T14:41:05.312Z,58.50
2023-01-09T14:43:47.780Z,58.50
2023-01-09T14:46:19.218Z,58.50
2023-01-09T14:49:00.363Z,58.50
2023-01-09T14:51:35.916Z,58.50
2023-01-09T14:54:15.924Z,58.50
2023-01-09T14:56:48.314Z,58.50
2023-01-09T14:59:18.277Z,58.50
2023-01-09T15:01:51.699Z,58.50
2023-01-09T15:04:31.875Z,58.50
2023-01-09T15:07:02.708Z,59.00
2023-01-09T15:09:45.694Z,58.40
2023-01-09T15:12:22.922Z,58.40
2023-01-09T15:14:54.582Z,58.40
2023-01-09T15:17:26.367Z,58.40
2023-01-09T15:19:56.494Z,58.40
2023-01-09T15:22:30.295Z,58.40
2023-01-09T15:25:00.416Z,58.40
2023-01-09T15:27:30.045Z,58.30
2023-01-09T15:30:17.346Z,58.30
2023-01-09T15:32:50.416Z,58.30
2023-01-09T15:35:21.291Z,58.30
2023-01-09T15:37:54.536Z,58.40
2023-01-09T15:40:26.863Z,58.40
2023-01-09T15:42:58.221Z,58.30
2023-01-09T15:45:32.580Z,58.30
2023-01-09T15:48:22.039Z,58.30
2023-01-09T15:50:53.649Z,58.40
2023-01-09T15:53:26.759Z,58.40
2023-01-09T15:56:24.291Z,58.40
2023-01-09T15:58:54.603Z,58.30
2023-01-09T16:01:31.337Z,58.30
2023-01-09T16:04:07.226Z,58.40
2023-01-09T16:06:38.885Z,58.40
2023-01-09T16:09:17.626Z,58.40
2023-01-09T16:11:52.207Z,58.40
2023-01-09T16:14:24.131Z,58.30
2023-01-09T16:16:55.630Z,58.10
2023-01-09T16:19:34.146Z,57.90
2023-01-09T16:22:04.497Z,57.50
2023-01-09T16:24:42.387Z,57.20
2023-01-09T16:27:30.923Z,57.00
2023-01-09T16:30:01.090Z,56.50
2023-01-09T16:32:32.778Z,56.40
2023-01-09T16:35:06.108Z,56.40
2023-01-09T16:37:37.589Z,56.30
2023-01-09T16:40:27.938Z,56.10
2023-01-09T16:43:01.404Z,56.10
2023-01-09T16:45:36.259Z,56.00
2023-01-09T16:48:13.767Z,56.00
2023-01-09T16:50:43.356Z,55.80
2023-01-09T16:53:16.792Z,55.80
2023-01-09T16:55:48.198Z,55.90
2023-01-09T16:58:20.375Z,56.20
2023-01-09T17:00:49.565Z,56.30
2023-01-09T17:03:20.276Z,56.50
2023-01-09T17:05:52.423Z,56.60
2023-01-09T17:08:26.300Z,56.70
2023-01-09T17:10:58.447Z,56.70
2023-01-09T17:13:27.883Z,56.80
2023-01-09T17:15:58.507Z,56.70
2023-01-09T17:18:29.763Z,56.70
2023-01-09T17:20:59.938Z,56.80
2023-01-09T17:23:29.236Z,56.80
2023-01-09T17:26:18.665Z,56.80
2023-01-09T17:28:50.611Z,56.80
2023-01-09T17:31:20.382Z,56.80
2023-01-09T17:33:49.581Z,56.80
2023-01-09T17:36:29.024Z,56.80
2023-01-09T17:38:58.316Z,56.70
2023-01-09T17:41:31.115Z,57.30
2023-01-09T17:44:01.282Z,56.70
2023-01-09T17:46:33.671Z,56.70
2023-01-09T17:49:04.364Z,56.60
2023-01-09T17:51:34.068Z,56.60
2023-01-09T17:54:04.055Z,56.60
2023-01-09T17:56:37.527Z,56.60
2023-01-09T17:59:07.726Z,56.50
2023-01-09T18:01:37.290Z,56.50
2023-01-09T18:04:06.734Z,56.40
2023-01-09T18:06:36.901Z,56.40
2023-01-09T18:09:06.565Z,56.40
2023-01-09T18:11:37.369Z,56.40
2023-01-09T18:14:06.702Z,56.20
2023-01-09T18:16:36.162Z,55.20
2023-01-09T18:19:05.626Z,54.00
2023-01-09T18:21:34.848Z,53.20
2023-01-09T18:24:04.198Z,52.90
2023-01-09T18:26:33.355Z,52.20
2023-01-09T18:29:04.141Z,51.50
2023-01-09T18:31:33.628Z,51.10
2023-01-09T18:34:05.609Z,50.70
2023-01-09T18:36:35.255Z,50.70
2023-01-09T18:39:07.344Z,50.40
2023-01-09T18:41:36.600Z,50.30
2023-01-09T18:44:08.674Z,50.20
2023-01-09T18:46:40.968Z,50.20
2023-01-09T18:49:11.363Z,50.00
2023-01-09T18:51:40.644Z,50.00
2023-01-09T18:54:09.970Z,50.40
2023-01-09T18:56:39.191Z,51.30
2023-01-09T18:59:12.425Z,52.10
2023-01-09T19:01:41.898Z,52.00
2023-01-09T19:04:11.293Z,52.80
2023-01-09T19:06:40.587Z,53.20
2023-01-09T19:09:09.863Z,53.40
2023-01-09T19:11:39.046Z,53.40
2023-01-09T19:14:09.696Z,53.80
2023-01-09T19:16:38.974Z,54.00
2023-01-09T19:19:08.882Z,54.10
2023-01-09T19:21:38.550Z,54.40
2023-01-09T19:24:08.591Z,54.30
2023-01-09T19:26:37.944Z,54.20
2023-01-09T19:29:07.636Z,54.20
2023-01-09T19:31:38.591Z,54.30
2023-01-09T19:34:08.119Z,54.30
2023-01-09T19:36:37.613Z,54.40
2023-01-09T19:39:07.585Z,54.60
2023-01-09T19:41:37.015Z,54.70
2023-01-09T19:44:06.760Z,54.60
2023-01-09T19:46:37.800Z,54.50
2023-01-09T19:49:07.065Z,54.60
2023-01-09T19:51:36.610Z,54.60
2023-01-09T19:56:35.743Z,54.60
2023-01-09T19:59:06.634Z,54.50
2023-01-09T20:01:39.719Z,54.40
2023-01-09T20:04:14.098Z,54.40
2023-01-09T20:06:45.391Z,54.30
2023-01-09T20:09:16.627Z,54.30
2023-01-09T20:11:46.202Z,54.30
2023-01-09T20:14:17.248Z,54.20
2023-01-09T20:16:49.038Z,54.20
2023-01-09T20:19:18.497Z,54.20
2023-01-09T20:21:47.763Z,54.10
2023-01-09T20:24:17.995Z,54.00
2023-01-09T20:26:47.663Z,54.10
2023-01-09T20:29:17.321Z,54.20
2023-01-09T20:31:48.147Z,54.10
2023-01-09T20:34:17.881Z,54.00
2023-01-09T20:36:47.622Z,54.00
2023-01-09T20:39:16.852Z,54.20
2023-01-09T20:41:46.077Z,54.40
2023-01-09T20:44:16.901Z,54.20
2023-01-09T20:46:48.687Z,54.50
2023-01-09T20:49:19.547Z,54.60
2023-01-09T20:51:50.442Z,54.70
2023-01-09T20:54:22.097Z,54.80
2023-01-09T20:56:51.432Z,54.70
2023-01-09T20:59:22.342Z,54.90
2023-01-09T21:01:53.171Z,54.90
2023-01-09T21:04:22.463Z,54.90
2023-01-09T21:06:51.620Z,55.00
2023-01-09T21:09:20.922Z,55.00
2023-01-09T21:11:50.109Z,55.00
2023-01-09T21:14:20.327Z,55.00
2023-01-09T21:16:54.990Z,55.10
2023-01-09T21:19:25.038Z,55.00
2023-01-09T21:21:54.238Z,55.10
2023-01-09T21:24:23.680Z,55.00
2023-01-09T21:26:53.011Z,55.20
2023-01-09T21:29:22.285Z,55.30
2023-01-09T21:31:54.071Z,55.20
2023-01-09T21:34:24.324Z,55.20
2023-01-09T21:36:53.841Z,55.20
2023-01-09T21:39:23.461Z,55.10
2023-01-09T21:42:10.303Z,54.90
2023-01-09T21:44:57.145Z,54.90
2023-01-09T21:47:27.787Z,54.90
2023-01-09T21:49:57.008Z,54.90
2023-01-09T21:52:26.787Z,54.90
2023-01-09T21:54:56.282Z,54.90
2023-01-09T21:57:25.758Z,54.90
2023-01-09T21:59:55.040Z,54.90
2023-01-09T22:02:24.395Z,54.90
2023-01-09T22:05:00.235Z,54.70
2023-01-09T22:07:29.537Z,54.90
2023-01-09T22:09:58.749Z,55.00
2023-01-09T22:12:27.965Z,54.90
2023-01-09T22:14:57.373Z,54.90
2023-01-09T22:17:26.635Z,54.90
2023-01-09T22:19:57.350Z,54.90
2023-01-09T22:22:26.622Z,54.80
2023-01-09T22:24:55.822Z,55.00
2023-01-09T22:27:25.063Z,54.90
2023-01-09T22:29:54.267Z,54.90
2023-01-09T22:32:23.827Z,54.90
2023-01-09T22:34:53.079Z,54.90
2023-01-09T22:37:23.759Z,54.90
2023-01-09T22:39:52.982Z,54.90
2023-01-09T22:42:22.258Z,55.00
2023-01-09T22:44:51.507Z,55.00
2023-01-09T22:47:20.771Z,55.00
2023-01-09T22:49:53.793Z,55.00
2023-01-09T22:52:24.699Z,55.00
2023-01-09T22:54:53.952Z,55.10
2023-01-09T22:57:23.163Z,55.00
2023-01-09T22:59:52.381Z,55.10
2023-01-09T23:02:21.747Z,55.10
2023-01-09T23:04:51.169Z,55.10
2023-01-09T23:07:20.365Z,55.30
2023-01-09T23:09:51.087Z,55.00
2023-01-09T23:12:20.407Z,55.10
2023-01-09T23:14:49.772Z,55.20
2023-01-09T23:17:19.100Z,55.10
2023-01-09T23:19:48.372Z,55.20
2023-01-09T23:22:17.525Z,55.20
2023-01-09T23:24:46.828Z,55.20
2023-01-09T23:27:17.585Z,55.20
2023-01-09T23:29:47.088Z,55.20
2023-01-09T23:32:16.233Z,55.20
2023-01-09T23:34:47.092Z,55.20
2023-01-09T23:37:16.473Z,55.20
2023-01-09T23:39:45.758Z,55.30
2023-01-09T23:42:33.791Z,55.30
2023-01-09T23:45:03.098Z,55.30
2023-01-09T23:47:32.388Z,55.30
2023-01-09T23:50:02.824Z,55.30
2023-01-09T23:52:32.059Z,55.30
2023-01-09T23:55:01.328Z,55.30
2023-01-09T23:57:31.931Z,55.30
